createdAt,value
2023-02-12T00:01:31.370Z,100.00
2023-02-12T00:06:57.650Z,100.00
2023-02-12T00:09:25.211Z,100.00
2023-02-12T00:11:53.039Z,100.00
2023-02-12T00:14:21.056Z,100.00
2023-02-12T00:16:51.864Z,100.00
2023-02-12T00:19:19.799Z,100.00
2023-02-12T00:21:50.951Z,100.00
2023-02-12T00:24:21.805Z,100.00
2023-02-12T00:26:51.065Z,100.00
2023-02-12T00:29:18.670Z,100.00
2023-02-12T00:31:46.183Z,100.00
2023-02-12T00:34:13.759Z,100.00
2023-02-12T00:36:41.791Z,100.00
2023-02-12T00:39:10.683Z,100.00
2023-02-12T00:41:38.202Z,100.00
2023-02-12T00:44:05.715Z,100.00
2023-02-12T00:46:35.592Z,100.00
2023-02-12T00:49:03.165Z,100.00
2023-02-12T00:51:30.657Z,100.00
2023-02-12T00:53:59.230Z,100.00
2023-02-12T00:56:26.921Z,100.00
2023-02-12T00:58:54.460Z,100.00
2023-02-12T01:01:22.067Z,100.00
2023-02-12T01:03:49.638Z,100.00
2023-02-12T01:06:17.133Z,100.00
2023-02-12T01:08:46.533Z,100.00
2023-02-12T01:11:15.604Z,100.00
2023-02-12T01:13:43.267Z,100.00
2023-02-12T01:16:20.753Z,100.00
2023-02-12T01:18:48.996Z,100.00
2023-02-12T01:21:20.418Z,100.00
2023-02-12T01:23:48.579Z,100.00
2023-02-12T01:26:17.380Z,100.00
2023-02-12T01:28:49.264Z,100.00
2023-02-12T01:31:20.122Z,100.00
2023-02-12T01:33:49.298Z,100.00
2023-02-12T01:36:17.150Z,100.00
2023-02-12T01:38:44.987Z,100.00
2023-02-12T01:41:17.104Z,100.00
2023-02-12T01:43:44.900Z,100.00
2023-02-12T01:46:15.124Z,100.00
2023-02-12T01:48:47.677Z,100.00
2023-02-12T01:51:20.272Z,100.00
2023-02-12T01:53:53.465Z,100.00
2023-02-12T01:56:21.952Z,100.00
2023-02-12T01:58:52.951Z,100.00
2023-02-12T02:01:24.745Z,100.00
2023-02-12T02:04:02.250Z,100.00
2023-02-12T02:06:39.772Z,100.00
2023-02-12T02:09:07.603Z,100.00
2023-02-12T02:11:53.435Z,100.00
2023-02-12T02:14:33.015Z,100.00
2023-02-12T02:17:37.819Z,100.00
2023-02-12T02:20:30.137Z,100.00
2023-02-12T02:23:23.706Z,100.00
2023-02-12T02:26:21.896Z,100.00
2023-02-12T02:29:08.721Z,100.00
2023-02-12T02:31:46.414Z,100.00
2023-02-12T02:34:32.451Z,100.00
2023-02-12T02:37:14.483Z,100.00
2023-02-12T02:39:54.738Z,100.00
2023-02-12T02:42:22.202Z,100.00
2023-02-12T02:45:18.902Z,100.00
2023-02-12T02:47:53.006Z,100.00
2023-02-12T02:50:24.676Z,100.00
2023-02-12T02:52:59.550Z,100.00
2023-02-12T02:55:35.801Z,100.00
2023-02-12T02:58:12.305Z,100.00
2023-02-12T03:00:55.388Z,100.00
2023-02-12T03:03:40.837Z,100.00
2023-02-12T03:06:19.050Z,100.00
2023-02-12T03:08:55.143Z,100.00
2023-02-12T03:11:30.460Z,100.00
2023-02-12T03:14:01.720Z,100.00
2023-02-12T03:16:38.128Z,100.00
2023-02-12T03:19:12.112Z,100.00
2023-02-12T03:22:05.733Z,100.00
2023-02-12T03:24:41.471Z,100.00
2023-02-12T03:27:22.660Z,100.00
2023-02-12T03:29:50.165Z,100.00
2023-02-12T03:32:36.380Z,100.00
2023-02-12T03:35:16.448Z,100.00
2023-02-12T03:37:58.507Z,100.00
2023-02-12T03:40:34.991Z,100.00
2023-02-12T03:43:07.646Z,100.00
2023-02-12T03:45:47.817Z,100.00
2023-02-12T03:48:26.344Z,100.00
2023-02-12T03:51:03.728Z,100.00
2023-02-12T03:53:32.025Z,100.00
2023-02-12T03:56:11.884Z,100.00
2023-02-12T03:58:43.029Z,100.00
2023-02-12T04:01:12.238Z,100.00
2023-02-12T04:03:40.151Z,100.00
2023-02-12T04:06:26.068Z,100.00
2023-02-12T04:08:55.098Z,100.00
2023-02-12T04:11:45.151Z,100.00
2023-02-12T04:14:37.474Z,100.00
2023-02-12T04:17:32.834Z,100.00
2023-02-12T04:20:15.146Z,100.00
2023-02-12T04:22:54.885Z,100.00
2023-02-12T04:25:34.137Z,100.00
2023-02-12T04:28:11.930Z,100.00
2023-02-12T04:31:15.016Z,100.00
2023-02-12T04:34:00.771Z,100.00
2023-02-12T04:36:37.177Z,100.00
2023-02-12T04:39:12.398Z,100.00
2023-02-12T04:41:39.945Z,100.00
2023-02-12T04:44:24.200Z,100.00
2023-02-12T04:46:52.657Z,100.00
2023-02-12T04:49:21.864Z,100.00
2023-02-12T04:51:50.811Z,100.00
2023-02-12T04:54:19.939Z,100.00
2023-02-12T04:56:48.444Z,100.00
2023-02-12T04:59:16.527Z,100.00
2023-02-12T05:01:45.717Z,100.00
2023-02-12T05:04:15.594Z,100.00
2023-02-12T05:06:45.297Z,100.00
2023-02-12T05:09:16.326Z,100.00
2023-02-12T05:11:44.420Z,100.00
2023-02-12T05:14:12.632Z,100.00
2023-02-12T05:16:40.156Z,100.00
2023-02-12T05:19:09.693Z,100.00
2023-02-12T05:21:38.598Z,100.00
2023-02-12T05:24:06.886Z,100.00
2023-02-12T05:26:34.877Z,100.00
2023-02-12T05:29:03.513Z,100.00
2023-02-12T05:31:31.162Z,100.00
2023-02-12T05:34:00.199Z,100.00
2023-02-12T05:36:28.013Z,100.00
2023-02-12T05:38:59.612Z,100.00
2023-02-12T05:41:27.260Z,100.00
2023-02-12T05:43:54.879Z,100.00
2023-02-12T05:46:22.666Z,100.00
2023-02-12T05:48:50.262Z,100.00
2023-02-12T05:51:22.302Z,100.00
2023-02-12T05:53:51.779Z,100.00
2023-02-12T05:56:25.120Z,100.00
2023-02-12T05:59:14.366Z,100.00
2023-02-12T06:01:44.274Z,100.00
2023-02-12T06:04:17.460Z,100.00
2023-02-12T06:06:46.428Z,100.00
2023-02-12T06:09:14.668Z,100.00
2023-02-12T06:11:43.135Z,100.00
2023-02-12T06:14:15.298Z,100.00
2023-02-12T06:16:47.804Z,100.00
2023-02-12T06:19:15.496Z,100.00
2023-02-12T06:21:43.349Z,100.00
2023-02-12T06:24:15.079Z,100.00
2023-02-12T06:26:43.090Z,100.00
2023-02-12T06:29:11.042Z,100.00
2023-02-12T06:31:38.989Z,100.00
2023-02-12T06:34:09.313Z,100.00
2023-02-12T06:36:38.775Z,100.00
2023-02-12T06:39:07.064Z,100.00
2023-02-12T06:41:35.092Z,100.00
2023-02-12T06:44:02.637Z,100.00
2023-02-12T06:46:30.526Z,100.00
2023-02-12T06:48:59.937Z,100.00
2023-02-12T06:51:29.039Z,100.00
2023-02-12T06:53:56.701Z,100.00
2023-02-12T06:56:27.557Z,100.00
2023-02-12T06:58:58.818Z,100.00
2023-02-12T07:01:29.596Z,100.00
2023-02-12T07:03:59.373Z,100.00
2023-02-12T07:06:29.245Z,100.00
2023-02-12T07:08:57.206Z,100.00
2023-02-12T07:11:28.382Z,100.00
2023-02-12T07:13:56.215Z,100.00
2023-02-12T07:16:24.037Z,100.00
2023-02-12T07:18:51.628Z,100.00
2023-02-12T07:21:19.841Z,100.00
2023-02-12T07:23:51.312Z,100.00
2023-02-12T07:26:20.662Z,100.00
2023-02-12T07:28:49.235Z,100.00
2023-02-12T07:31:20.873Z,100.00
2023-02-12T07:33:49.212Z,100.00
2023-02-12T07:36:19.426Z,100.00
2023-02-12T07:38:47.707Z,100.00
2023-02-12T07:45:37.976Z,100.00
2023-02-12T07:48:05.548Z,100.00
2023-02-12T07:50:33.624Z,100.00
2023-02-12T07:53:01.247Z,100.00
2023-02-12T07:55:31.754Z,100.00
2023-02-12T07:57:59.291Z,100.00
2023-02-12T08:00:26.887Z,100.00
2023-02-12T08:02:54.742Z,100.00
2023-02-12T08:05:22.524Z,100.00
2023-02-12T08:07:50.063Z,100.00
2023-02-12T08:10:22.372Z,96.95
2023-02-12T08:12:50.084Z,97.62
2023-02-12T08:15:17.997Z,93.85
2023-02-12T08:20:48.062Z,79.19
2023-02-12T08:23:19.360Z,73.28
2023-02-12T08:25:48.359Z,72.48
2023-02-12T08:28:22.231Z,70.87
2023-02-12T08:30:54.220Z,65.27
2023-02-12T08:33:25.932Z,64.23
2023-02-12T08:36:07.311Z,66.06
2023-02-12T08:38:39.737Z,66.00
2023-02-12T08:41:25.673Z,69.52
2023-02-12T08:57:37.285Z,46.29
2023-02-12T09:10:29.440Z,42.96
2023-02-12T09:24:07.351Z,43.36
2023-02-12T09:26:37.810Z,41.91
2023-02-12T09:29:10.850Z,39.52
2023-02-12T09:52:25.167Z,41.84
2023-02-12T09:54:53.198Z,39.24
2023-02-12T09:57:41.747Z,39.75
2023-02-12T10:05:44.112Z,36.84
2023-02-12T10:31:30.057Z,38.64
2023-02-12T10:34:17.796Z,40.80
2023-02-12T10:40:43.754Z,44.66
2023-02-12T10:43:15.563Z,43.40
2023-02-12T10:49:31.895Z,49.26
2023-02-12T10:52:11.051Z,45.81
2023-02-12T10:55:31.996Z,44.28
2023-02-12T10:58:01.495Z,44.77
2023-02-12T11:00:37.316Z,44.27
2023-02-12T11:03:13.601Z,44.51
2023-02-12T11:05:43.747Z,43.32
2023-02-12T11:08:30.035Z,44.65
2023-02-12T11:11:18.331Z,44.94
2023-02-12T11:14:06.531Z,43.27
2023-02-12T11:16:56.234Z,45.78
2023-02-12T11:19:32.443Z,45.20
2023-02-12T11:22:18.725Z,48.80
2023-02-12T11:24:47.160Z,46.57
2023-02-12T11:27:25.956Z,46.13
2023-02-12T11:30:13.609Z,47.50
2023-02-12T11:32:41.188Z,48.09
2023-02-12T11:35:18.355Z,46.47
2023-02-12T11:37:47.477Z,47.16
2023-02-12T11:40:29.950Z,46.83
2023-02-12T11:43:08.412Z,46.14
2023-02-12T11:45:47.879Z,46.78
2023-02-12T11:48:27.866Z,48.61
2023-02-12T11:50:57.911Z,47.28
2023-02-12T11:53:31.135Z,49.05
2023-02-12T11:56:03.416Z,47.73
2023-02-12T11:58:31.277Z,48.22
2023-02-12T12:01:09.405Z,49.91
2023-02-12T12:03:48.038Z,47.76
2023-02-12T12:06:37.094Z,48.30
2023-02-12T12:09:24.888Z,47.54
2023-02-12T12:12:37.239Z,48.87
2023-02-12T12:15:44.175Z,44.67
2023-02-12T12:19:01.160Z,47.43
2023-02-12T12:21:45.804Z,47.64
2023-02-12T12:25:06.394Z,48.03
2023-02-12T12:28:08.377Z,47.88
2023-02-12T12:30:59.007Z,46.69
2023-02-12T12:33:39.971Z,46.21
2023-02-12T12:36:16.710Z,47.32
2023-02-12T12:39:28.170Z,48.15
2023-02-12T12:42:28.257Z,49.31
2023-02-12T12:45:11.098Z,49.27
2023-02-12T12:47:58.579Z,47.61
2023-02-12T12:50:35.011Z,48.15
2023-02-12T12:53:20.648Z,50.26
2023-02-12T12:55:59.816Z,49.23
2023-02-12T12:58:57.196Z,47.58
2023-02-12T13:01:36.340Z,47.70
2023-02-12T13:04:29.225Z,47.63
2023-02-12T13:07:06.356Z,47.28
2023-02-12T13:09:52.466Z,46.15
2023-02-12T13:12:22.470Z,45.09
2023-02-12T13:15:04.140Z,44.63
2023-02-12T13:17:31.460Z,43.12
2023-02-12T13:20:07.360Z,43.33
2023-02-12T13:22:34.613Z,41.75
2023-02-12T13:25:16.280Z,42.01
2023-02-12T13:27:48.060Z,38.86
2023-02-12T13:30:23.628Z,36.79
2023-02-12T13:33:20.279Z,36.75
2023-02-12T13:35:51.971Z,36.39
2023-02-12T13:38:25.281Z,36.37
2023-02-12T13:41:00.277Z,36.07
2023-02-12T13:43:48.350Z,35.79
2023-02-12T13:46:29.657Z,35.56
2023-02-12T13:49:16.025Z,33.71
2023-02-12T13:51:47.350Z,33.61
2023-02-12T13:54:21.796Z,34.08
2023-02-12T13:56:56.395Z,34.24
2023-02-12T13:59:32.783Z,33.78
2023-02-12T14:02:04.457Z,31.76
2023-02-12T14:04:40.028Z,32.12
2023-02-12T14:07:21.970Z,32.47
2023-02-12T14:09:49.706Z,31.09
2023-02-12T14:12:28.431Z,30.76
2023-02-12T14:15:10.996Z,31.37
2023-02-12T14:18:09.302Z,31.71
2023-02-12T14:21:23.212Z,32.79
2023-02-12T14:23:56.004Z,32.91
2023-02-12T14:27:13.270Z,33.40
2023-02-12T14:54:20.908Z,37.25
2023-02-12T14:58:10.735Z,37.80
2023-02-12T15:01:21.755Z,37.65
2023-02-12T15:04:42.101Z,38.90
2023-02-12T15:24:26.173Z,40.63
2023-02-12T15:32:13.662Z,40.84
2023-02-12T15:42:31.077Z,42.92
2023-02-12T16:03:31.942Z,44.86
2023-02-12T16:06:12.582Z,45.94
2023-02-12T16:09:36.372Z,45.73
2023-02-12T16:12:15.692Z,46.35
2023-02-12T16:14:58.667Z,45.69
2023-02-12T16:17:59.662Z,46.26
2023-02-12T16:24:57.263Z,48.30
2023-02-12T16:28:14.687Z,48.17
2023-02-12T16:31:28.102Z,47.96
2023-02-12T16:38:37.423Z,49.09
2023-02-12T16:41:44.285Z,49.74
2023-02-12T16:44:39.768Z,51.83
2023-02-12T16:47:39.538Z,51.65
2023-02-12T16:50:20.283Z,51.28
2023-02-12T16:53:01.614Z,52.93
2023-02-12T16:55:29.701Z,52.95
2023-02-12T16:58:00.599Z,53.38
2023-02-12T17:00:32.664Z,53.44
2023-02-12T17:03:01.891Z,53.97
2023-02-12T17:05:29.586Z,54.02
2023-02-12T17:07:57.551Z,55.33
2023-02-12T17:10:33.415Z,54.76
2023-02-12T17:13:02.833Z,55.64
2023-02-12T17:24:51.762Z,54.24
2023-02-12T17:27:19.627Z,54.36
2023-02-12T17:29:47.257Z,54.88
2023-02-12T17:32:17.713Z,55.54
2023-02-12T17:34:49.194Z,55.94
2023-02-12T17:37:22.742Z,57.26
2023-02-12T17:39:58.042Z,56.41
2023-02-12T17:42:29.864Z,57.90
2023-02-12T17:44:59.021Z,56.46
2023-02-12T17:47:26.818Z,56.52
2023-02-12T17:49:56.719Z,57.84
2023-02-12T17:52:25.329Z,58.10
2023-02-12T17:54:56.410Z,57.71
2023-02-12T17:57:25.422Z,58.00
2023-02-12T18:00:10.853Z,58.32
2023-02-12T18:02:46.112Z,59.07
2023-02-12T18:05:31.616Z,59.09
2023-02-12T18:08:04.751Z,59.13
2023-02-12T18:10:40.058Z,58.99
2023-02-12T18:13:07.758Z,58.86
2023-02-12T18:15:35.955Z,59.44
2023-02-12T18:18:03.633Z,59.32
2023-02-12T18:20:31.197Z,59.91
2023-02-12T18:22:58.750Z,59.18
2023-02-12T18:25:26.439Z,59.33
2023-02-12T18:27:54.012Z,58.04
2023-02-12T18:30:21.557Z,58.13
2023-02-12T18:32:49.087Z,58.01
2023-02-12T18:35:16.829Z,58.35
2023-02-12T18:37:44.565Z,58.36
2023-02-12T18:40:12.270Z,58.10
2023-02-12T18:42:40.083Z,58.80
2023-02-12T18:45:08.189Z,58.85
2023-02-12T18:47:35.856Z,58.88
2023-02-12T18:50:03.808Z,59.42
2023-02-12T18:52:32.184Z,60.72
2023-02-12T18:54:59.647Z,60.79
2023-02-12T18:57:28.066Z,60.60
2023-02-12T18:59:55.693Z,59.92
2023-02-12T19:02:23.201Z,60.42
2023-02-12T19:04:50.786Z,61.29
2023-02-12T19:07:19.145Z,61.94
2023-02-12T19:09:47.621Z,61.50
2023-02-12T19:12:16.396Z,61.53
2023-02-12T19:14:45.242Z,61.52
2023-02-12T19:17:13.962Z,62.06
2023-02-12T19:19:44.777Z,61.96
2023-02-12T19:22:12.257Z,62.06
2023-02-12T19:24:46.548Z,62.97
2023-02-12T19:27:14.755Z,62.66
2023-02-12T19:29:42.688Z,62.46
2023-02-12T19:32:10.391Z,61.70
2023-02-12T19:34:38.280Z,63.52
2023-02-12T19:37:06.937Z,62.21
2023-02-12T19:39:34.620Z,63.30
2023-02-12T19:42:02.254Z,64.32
2023-02-12T19:44:29.718Z,66.05
2023-02-12T19:46:57.787Z,67.10
2023-02-12T19:49:27.782Z,66.61
2023-02-12T19:51:55.348Z,66.30
2023-02-12T19:54:24.110Z,67.05
2023-02-12T19:56:53.208Z,65.91
2023-02-12T19:59:22.503Z,66.21
2023-02-12T20:01:50.240Z,67.52
2023-02-12T20:04:20.985Z,67.43
2023-02-12T20:06:52.654Z,69.01
2023-02-12T20:09:22.225Z,69.94
2023-02-12T20:11:50.339Z,71.24
2023-02-12T20:14:18.274Z,71.30
2023-02-12T20:16:48.079Z,71.88
2023-02-12T20:19:21.203Z,71.49
2023-02-12T20:21:54.324Z,72.67
2023-02-12T20:24:28.702Z,71.76
2023-02-12T20:26:58.036Z,73.03
2023-02-12T20:29:25.859Z,75.39
2023-02-12T20:31:53.696Z,76.93
2023-02-12T20:34:42.468Z,76.76
2023-02-12T20:37:25.288Z,78.25
2023-02-12T20:39:53.932Z,78.17
2023-02-12T20:42:22.542Z,78.49
2023-02-12T20:45:23.548Z,79.73
2023-02-12T20:47:56.565Z,79.47
2023-02-12T20:54:04.323Z,80.73
2023-02-12T20:56:34.759Z,82.27
2023-02-12T20:59:05.308Z,83.16
2023-02-12T21:01:40.508Z,82.85
2023-02-12T21:04:12.241Z,83.94
2023-02-12T21:06:46.698Z,83.03
2023-02-12T21:09:18.975Z,83.67
2023-02-12T21:11:58.659Z,84.96
2023-02-12T21:14:26.833Z,84.96
2023-02-12T21:16:55.958Z,85.66
2023-02-12T21:19:24.360Z,88.94
2023-02-12T21:21:53.185Z,89.22
2023-02-12T21:34:30.733Z,87.80
2023-02-12T21:36:58.394Z,88.33
2023-02-12T21:39:28.422Z,89.33
2023-02-12T21:41:58.648Z,90.64
2023-02-12T21:44:27.034Z,89.90
2023-02-12T21:46:55.514Z,90.06
2023-02-12T21:49:27.737Z,90.27
2023-02-12T21:51:58.985Z,90.33
2023-02-12T21:54:26.976Z,91.21
2023-02-12T21:56:55.511Z,91.12
2023-02-12T21:59:24.924Z,90.45
2023-02-12T22:01:55.585Z,90.60
2023-02-12T22:04:23.230Z,91.39
2023-02-12T22:06:52.671Z,91.39
2023-02-12T22:09:22.544Z,89.53
2023-02-12T22:11:52.335Z,89.01
2023-02-12T22:14:21.269Z,88.52
2023-02-12T22:16:50.479Z,88.38
2023-02-12T22:19:18.167Z,87.74
2023-02-12T22:21:50.839Z,89.64
2023-02-12T22:24:18.334Z,88.37
2023-02-12T22:26:45.961Z,87.82
2023-02-12T22:29:15.821Z,88.16
2023-02-12T22:34:46.666Z,89.11
2023-02-12T22:37:15.560Z,87.46
2023-02-12T22:39:44.180Z,87.55
2023-02-12T22:42:11.852Z,88.02
2023-02-12T22:44:39.504Z,86.70
2023-02-12T22:47:06.955Z,85.89
2023-02-12T22:49:35.928Z,85.85
2023-02-12T22:52:03.559Z,85.35
2023-02-12T22:54:31.082Z,84.62
2023-02-12T22:56:58.602Z,84.06
2023-02-12T22:59:26.268Z,84.19
2023-02-12T23:01:53.736Z,83.44
2023-02-12T23:04:21.375Z,82.80
2023-02-12T23:06:49.054Z,81.73
2023-02-12T23:09:19.284Z,81.30
2023-02-12T23:11:47.632Z,81.49
2023-02-12T23:14:15.477Z,80.56
2023-02-12T23:16:43.170Z,80.41
2023-02-12T23:19:11.520Z,80.58
2023-02-12T23:21:40.024Z,80.00
2023-02-12T23:24:07.720Z,80.49
2023-02-12T23:26:36.824Z,80.78
2023-02-12T23:29:04.696Z,80.29
2023-02-12T23:31:32.564Z,80.00
2023-02-12T23:34:00.369Z,80.10
2023-02-12T23:36:28.545Z,79.55
2023-02-12T23:38:56.448Z,79.63
2023-02-12T23:41:24.438Z,79.78
2023-02-12T23:43:52.276Z,80.68
2023-02-12T23:46:20.104Z,79.55
2023-02-12T23:48:47.916Z,79.99
2023-02-12T23:51:15.646Z,79.67
2023-02-12T23:53:43.427Z,79.64
2023-02-12T23:56:11.156Z,79.16
2023-02-12T23:58:38.860Z,78.31
